MSR990 HECA-OEJN
Flight info
| Callsign | MSR990 |
|---|---|
| Flight time | N/A |
| Altitude | 35000 |
| Route | UL450 CVO L601 GIBAL |
| Aircraft | B738/M-V/N |
Departure
| Time | 2026-05-06 23:51 |
|---|---|
| Airport | Cairo International Airport (HECA) |
Arrival
| Time | N/A |
|---|---|
| Airport | King Abdulaziz International Airport (OEJN) |
| Time | Latitude | Longitude | Altitude | Speed | Heading |
|---|---|---|---|---|---|
| 2026-05-06 23:34 | 30.11441 | 31.41089 | 353 ft | 0 kts | 322° |
| 2026-05-06 23:37 | 30.11441 | 31.41088 | 352 ft | 0 kts | 316° |
| 2026-05-06 23:37 | 30.11442 | 31.41087 | 352 ft | 0 kts | 305° |
| 2026-05-06 23:37 | 30.11445 | 31.41082 | 352 ft | 1 kts | 304° |
| 2026-05-06 23:37 | 30.11451 | 31.41072 | 352 ft | 1 kts | 305° |
| 2026-05-06 23:38 | 30.11452 | 31.41072 | 352 ft | 0 kts | 305° |
| 2026-05-06 23:38 | 30.11452 | 31.41070 | 351 ft | 0 kts | 305° |
| 2026-05-06 23:38 | 30.11453 | 31.41070 | 351 ft | 2 kts | 305° |
| 2026-05-06 23:38 | 30.11424 | 31.41117 | 354 ft | 11 kts | 304° |
| 2026-05-06 23:39 | 30.11397 | 31.41163 | 357 ft | 0 kts | 303° |
| 2026-05-06 23:40 | 30.11391 | 31.41168 | 357 ft | 3 kts | 324° |
| 2026-05-06 23:40 | 30.11385 | 31.41181 | 358 ft | 0 kts | 270° |
| 2026-05-06 23:43 | 30.11385 | 31.41175 | 358 ft | 4 kts | 268° |
| 2026-05-06 23:43 | 30.11354 | 31.41106 | 358 ft | 14 kts | 230° |
| 2026-05-06 23:43 | 30.11271 | 31.40994 | 361 ft | 22 kts | 228° |
| 2026-05-06 23:43 | 30.11149 | 31.40832 | 365 ft | 30 kts | 229° |
| 2026-05-06 23:44 | 30.11000 | 31.40630 | 365 ft | 26 kts | 227° |
| 2026-05-06 23:44 | 30.10910 | 31.40514 | 363 ft | 22 kts | 229° |
| 2026-05-06 23:44 | 30.10850 | 31.40433 | 362 ft | 0 kts | 228° |
| 2026-05-06 23:45 | 30.10844 | 31.40427 | 362 ft | 5 kts | 228° |
| 2026-05-06 23:45 | 30.10786 | 31.40356 | 361 ft | 16 kts | 218° |
| 2026-05-06 23:45 | 30.10672 | 31.40308 | 366 ft | 19 kts | 202° |
| 2026-05-06 23:46 | 30.10545 | 31.40188 | 369 ft | 26 kts | 227° |
| 2026-05-06 23:46 | 30.10408 | 31.40002 | 369 ft | 25 kts | 229° |
| 2026-05-06 23:46 | 30.10383 | 31.39968 | 369 ft | 0 kts | 229° |
| 2026-05-06 23:48 | 30.10381 | 31.39966 | 369 ft | 2 kts | 229° |
| 2026-05-06 23:49 | 30.10342 | 31.39914 | 370 ft | 13 kts | 223° |
| 2026-05-06 23:49 | 30.10240 | 31.39909 | 376 ft | 17 kts | 148° |
| 2026-05-06 23:49 | 30.10157 | 31.39993 | 383 ft | 14 kts | 117° |
| 2026-05-06 23:49 | 30.10169 | 31.40081 | 386 ft | 13 kts | 58° |
| 2026-05-06 23:50 | 30.10204 | 31.40132 | 386 ft | 0 kts | 49° |
| 2026-05-06 23:50 | 30.10323 | 31.40289 | 388 ft | 64 kts | 49° |
| 2026-05-06 23:50 | 30.10820 | 31.40951 | 387 ft | 149 kts | 49° |
| 2026-05-06 23:51 | 30.11641 | 31.42045 | 509 ft | 202 kts | 49° |
| 2026-05-06 23:51 | 30.12598 | 31.43324 | 1101 ft | 218 kts | 50° |
| 2026-05-06 23:51 | 30.13503 | 31.44721 | 2238 ft | 217 kts | 56° |
| 2026-05-06 23:51 | 30.14353 | 31.46284 | 2747 ft | 244 kts | 62° |
| 2026-05-06 23:52 | 30.14790 | 31.48216 | 3428 ft | 257 kts | 85° |
| 2026-05-06 23:52 | 30.14728 | 31.50331 | 4256 ft | 262 kts | 96° |
| 2026-05-06 23:52 | 30.14433 | 31.52495 | 4678 ft | 294 kts | 106° |
| 2026-05-06 23:52 | 30.13493 | 31.54875 | 4388 ft | 353 kts | 120° |
| 2026-05-06 23:53 | 30.12058 | 31.57341 | 4795 ft | 381 kts | 126° |
| 2026-05-06 23:53 | 30.10541 | 31.59676 | 6602 ft | 346 kts | 127° |
| 2026-05-06 23:53 | 30.08966 | 31.61601 | 7366 ft | 329 kts | 144° |
| 2026-05-06 23:53 | 30.06865 | 31.62766 | 7232 ft | 341 kts | 167° |
| 2026-05-06 23:54 | 30.04545 | 31.63104 | 7609 ft | 335 kts | 174° |
| 2026-05-06 23:54 | 30.02090 | 31.63400 | 7140 ft | 357 kts | 171° |
| 2026-05-06 23:54 | 29.99499 | 31.64172 | 6592 ft | 377 kts | 159° |
| 2026-05-06 23:54 | 29.97213 | 31.65410 | 6107 ft | 386 kts | 151° |
| 2026-05-06 23:55 | 29.94935 | 31.67074 | 5553 ft | 369 kts | 145° |
| 2026-05-06 23:55 | 29.92855 | 31.68801 | 5039 ft | 353 kts | 143° |
| 2026-05-06 23:55 | 29.90822 | 31.70568 | 4510 ft | 340 kts | 142° |
| 2026-05-06 23:55 | 29.88887 | 31.72326 | 4052 ft | 326 kts | 141° |
| 2026-05-06 23:56 | 29.87006 | 31.74088 | 3978 ft | 301 kts | 141° |
| 2026-05-06 23:56 | 29.85319 | 31.75695 | 3992 ft | 277 kts | 140° |
| 2026-05-06 23:56 | 29.83711 | 31.77243 | 4000 ft | 264 kts | 140° |
| 2026-05-06 23:56 | 29.82547 | 31.78372 | 4001 ft | 264 kts | 140° |
| 2026-05-06 23:57 | 29.80367 | 31.80499 | 4002 ft | 265 kts | 140° |
| 2026-05-06 23:57 | 29.78769 | 31.82063 | 4001 ft | 265 kts | 140° |
| 2026-05-06 23:58 | 29.77132 | 31.83667 | 4000 ft | 265 kts | 140° |
| 2026-05-06 23:58 | 29.75534 | 31.85231 | 4000 ft | 265 kts | 140° |
| 2026-05-06 23:58 | 29.73917 | 31.86815 | 4000 ft | 265 kts | 140° |
| 2026-05-06 23:58 | 29.72279 | 31.88419 | 4000 ft | 265 kts | 140° |
| 2026-05-06 23:59 | 29.70868 | 31.89798 | 4000 ft | 265 kts | 140° |
| 2026-05-06 23:59 | 29.69363 | 31.91271 | 4000 ft | 265 kts | 140° |
| 2026-05-06 23:59 | 29.68755 | 31.91866 | 4000 ft | 265 kts | 140° |
| 2026-05-07 00:00 | 29.67049 | 31.93533 | 4000 ft | 265 kts | 140° |
| 2026-05-07 00:00 | 29.65407 | 31.95138 | 4000 ft | 265 kts | 140° |
| 2026-05-07 00:00 | 29.64318 | 31.96201 | 4000 ft | 265 kts | 140° |
| 2026-05-07 00:01 | 29.62135 | 31.98332 | 4000 ft | 265 kts | 140° |
| 2026-05-07 00:01 | 29.60506 | 31.99922 | 4000 ft | 265 kts | 140° |
| 2026-05-07 00:01 | 29.58882 | 32.01507 | 4000 ft | 265 kts | 140° |
| 2026-05-07 00:01 | 29.57245 | 32.03103 | 4000 ft | 265 kts | 140° |
| 2026-05-07 00:02 | 29.55689 | 32.04619 | 4000 ft | 265 kts | 140° |